Time;durP1;ratioP1;P1;durP2;ratioP2;P2;SDS_P1;SDS_P2;PMS_P1;PMS_P2;Temp;Humidity;BMP_temperature;BMP_pressure;BME280_temperature;BME280_humidity;BME280_pressure;Samples;Min_cycle;Max_cycle;Signal;HPM_P1;HPM_P2
2021/03/16 00:01:57;;;;;;;;;;;;;;;;;;5067398;28;1112;-60
2021/03/16 00:04:23;;;;;;;;;;;;;;;;;;5068681;28;1926;-61
2021/03/16 00:06:48;;;;;;;;;;;;;;;;;;5070154;28;946;-59
2021/03/16 00:09:14;;;;;;;;;;;;;;;;;;5067290;28;855;-59
2021/03/16 00:11:39;;;;;;;;;;;;;;;;;;5067452;28;838;-60
2021/03/16 00:14:05;;;;;;;;;;;;;;;;;;5067306;28;843;-59
2021/03/16 00:16:30;;;;;;;;;;;;;;;;;;5065943;28;786;-59
2021/03/16 00:18:56;;;;;;;;;;;;;;;;;;5066951;28;842;-58
2021/03/16 00:21:21;;;;;;;;;;;;;;;;;;5068716;28;886;-59
2021/03/16 00:23:46;;;;;;;;;;;;;;;;;;5067527;28;1991;-59
2021/03/16 00:26:12;;;;;;;;;;;;;;;;;;5067246;28;901;-59
2021/03/16 00:28:37;;;;;;;;;;;;;;;;;;5067569;28;926;-59
2021/03/16 00:31:03;;;;;;;;;;;;;;;;;;5067331;28;870;-59
2021/03/16 00:33:28;;;;;;;;;;;;;;;;;;5066974;28;846;-59
2021/03/16 00:35:54;;;;;;;;;;;;;;;;;;5068031;28;948;-58
2021/03/16 00:38:19;;;;;;;;;;;;;;;;;;5069117;28;857;-59
2021/03/16 00:40:45;;;;;;;;;;;;;;;;;;5067470;28;957;-59
2021/03/16 00:43:10;;;;;;;;;;;;;;;;;;5067473;28;1889;-60
2021/03/16 00:45:36;;;;;;;;;;;;;;;;;;5067358;28;816;-59
2021/03/16 00:48:01;;;;;;;;;;;;;;;;;;5066849;28;1135;-59
2021/03/16 00:50:26;;;;;;;;;;;;;;;;;;5066646;28;858;-59
2021/03/16 00:52:52;;;;;;;;;;;;;;;;;;5069618;28;1153;-59
2021/03/16 00:55:17;;;;;;;;;;;;;;;;;;5087852;28;804;-59
2021/03/16 00:57:42;;;;;;;;;;;;;;;;;;5087502;28;885;-59
2021/03/16 01:00:08;;;;;;;;;;;;;;;;;;5082150;28;1127;-59
2021/03/16 01:02:34;;;;;;;;;;;;;;;;;;5070139;28;1965;-58
2021/03/16 01:04:59;;;;;;;;;;;;;;;;;;5066934;28;808;-59
2021/03/16 01:07:25;;;;;;;;;;;;;;;;;;5068491;28;985;-59
2021/03/16 01:09:50;;;;;;;;;;;;;;;;;;5067970;28;882;-58
2021/03/16 01:12:15;;;;;;;;;;;;;;;;;;5066449;28;985;-58
2021/03/16 01:14:41;;;;;;;;;;;;;;;;;;5066054;28;859;-58
2021/03/16 01:17:07;;;;;;;;;;;;;;;;;;5066707;28;811;-59
2021/03/16 01:19:32;;;;;;;;;;;;;;;;;;5066992;28;835;-58
2021/03/16 01:21:57;;;;;;;;;;;;;;;;;;5066659;28;911;-58
2021/03/16 01:24:23;;;;;;;;;;;;;;;;;;5066548;28;1890;-58
2021/03/16 01:26:48;;;;;;;;;;;;;;;;;;5067900;28;910;-57
2021/03/16 01:29:14;;;;;;;;;;;;;;;;;;5069737;28;886;-58
2021/03/16 01:31:39;;;;;;;;;;;;;;;;;;5070547;28;827;-57
2021/03/16 01:34:04;;;;;;;;;;;;;;;;;;5069502;28;1621;-59
2021/03/16 01:36:30;;;;;;;;;;;;;;;;;;5070798;28;918;-58
2021/03/16 01:38:55;;;;;;;;;;;;;;;;;;5070254;28;815;-58
2021/03/16 01:41:20;;;;;;;;;;;;;;;;;;5071172;28;820;-58
2021/03/16 01:43:46;;;;;;;;;;;;;;;;;;5070534;28;1947;-58
2021/03/16 01:46:11;;;;;;;;;;;;;;;;;;5069869;28;899;-57
2021/03/16 01:48:37;;;;;;;;;;;;;;;;;;5069741;28;858;-57
2021/03/16 01:51:06;;;;;;;;;;;;;;;;;;5070150;28;819;-57
2021/03/16 01:53:31;;;;;;;;;;;;;;;;;;5078094;28;1153;-57
2021/03/16 01:55:57;;;;;;;;;;;;;;;;;;5090290;28;917;-57
2021/03/16 01:58:22;;;;;;;;;;;;;;;;;;5091207;28;858;-57
2021/03/16 02:00:48;;;;;;;;;;;;;;;;;;5090743;28;901;-57
2021/03/16 02:03:13;;;;;;;;;;;;;;;;;;5090085;28;1951;-59
2021/03/16 02:05:40;;;;;;;;;;;;;;;;;;5089996;28;847;-59
2021/03/16 02:08:11;;;;;;;;;;;;;;;;;;5090931;28;872;-59
2021/03/16 02:10:57;;;;;;;;;;;;;;;;;;5082202;28;958;-60
2021/03/16 02:13:30;;;;;;;;;;;;;;;;;;5070135;28;1741;-60
2021/03/16 02:16:07;;;;;;;;;;;;;;;;;;5069227;28;973;-61
2021/03/16 02:18:35;;;;;;;;;;;;;;;;;;5069801;28;871;-60
2021/03/16 02:21:06;;;;;;;;;;;;;;;;;;5069483;28;973;-60
2021/03/16 02:23:51;;;;;;;;;;;;;;;;;;5069513;28;1949;-60
2021/03/16 02:26:28;;;;;;;;;;;;;;;;;;5069397;28;917;-61
2021/03/16 02:29:12;;;;;;;;;;;;;;;;;;5069125;28;934;-60
2021/03/16 02:31:38;;;;;;;;;;;;;;;;;;5069437;28;886;-60
2021/03/16 02:34:05;;;;;;;;;;;;;;;;;;5069317;28;1147;-60
2021/03/16 02:36:31;;;;;;;;;;;;;;;;;;5069132;28;941;-60
2021/03/16 02:38:58;;;;;;;;;;;;;;;;;;5068555;28;945;-59
2021/03/16 02:41:23;;;;;;;;;;;;;;;;;;5068091;28;874;-61
2021/03/16 02:43:49;;;;;;;;;;;;;;;;;;5069215;28;1968;-60
2021/03/16 02:46:15;;;;;;;;;;;;;;;;;;5068637;28;819;-60
2021/03/16 02:48:42;;;;;;;;;;;;;;;;;;5068313;28;850;-60
2021/03/16 02:51:10;;;;;;;;;;;;;;;;;;5069535;28;867;-60
2021/03/16 02:53:36;;;;;;;;;;;;;;;;;;5072539;28;1164;-60
2021/03/16 02:56:02;;;;;;;;;;;;;;;;;;5068910;28;822;-59
2021/03/16 02:58:28;;;;;;;;;;;;;;;;;;5068905;28;811;-61
2021/03/16 03:00:54;;;;;;;;;;;;;;;;;;5068528;28;1074;-61
2021/03/16 03:03:21;;;;;;;;;;;;;;;;;;5069582;28;1961;-60
2021/03/16 03:05:48;;;;;;;;;;;;;;;;;;5069584;28;1135;-60
2021/03/16 03:08:14;;;;;;;;;;;;;;;;;;5070353;28;1137;-58
2021/03/16 03:10:40;;;;;;;;;;;;;;;;;;5071379;28;823;-60
2021/03/16 03:13:05;;;;;;;;;;;;;;;;;;5068064;28;854;-59
2021/03/16 03:15:31;;;;;;;;;;;;;;;;;;5068985;28;858;-60
2021/03/16 03:17:57;;;;;;;;;;;;;;;;;;5068470;28;863;-60
2021/03/16 03:20:23;;;;;;;;;;;;;;;;;;5069063;28;878;-60
2021/03/16 03:22:59;;;;;;;;;;;;;;;;;;5068609;28;1965;-60
2021/03/16 03:25:25;;;;;;;;;;;;;;;;;;5068419;28;879;-60
2021/03/16 03:27:59;;;;;;;;;;;;;;;;;;5069012;28;863;-60
2021/03/16 03:30:24;;;;;;;;;;;;;;;;;;5068348;28;819;-61
2021/03/16 03:32:51;;;;;;;;;;;;;;;;;;5069459;28;828;-60
2021/03/16 03:35:17;;;;;;;;;;;;;;;;;;5067464;28;1120;-59
2021/03/16 03:37:46;;;;;;;;;;;;;;;;;;5067237;28;1084;-59
2021/03/16 03:40:13;;;;;;;;;;;;;;;;;;5067772;28;1143;-60
2021/03/16 03:42:39;;;;;;;;;;;;;;;;;;5068006;28;1955;-59
2021/03/16 03:45:05;;;;;;;;;;;;;;;;;;5067715;28;898;-60
2021/03/16 03:47:31;;;;;;;;;;;;;;;;;;5067776;28;878;-59
2021/03/16 03:49:57;;;;;;;;;;;;;;;;;;5068222;28;939;-59
2021/03/16 03:52:24;;;;;;;;;;;;;;;;;;5068355;28;843;-61
2021/03/16 03:54:49;;;;;;;;;;;;;;;;;;5086870;28;1078;-60
2021/03/16 03:57:15;;;;;;;;;;;;;;;;;;5087940;28;917;-59
2021/03/16 03:59:45;;;;;;;;;;;;;;;;;;5086457;28;934;-60
2021/03/16 04:02:10;;;;;;;;;;;;;;;;;;5087685;28;1901;-59
2021/03/16 04:04:37;;;;;;;;;;;;;;;;;;5087770;28;886;-60
2021/03/16 04:07:02;;;;;;;;;;;;;;;;;;5087872;28;846;-59
2021/03/16 04:09:28;;;;;;;;;;;;;;;;;;5087749;28;838;-59
2021/03/16 04:11:54;;;;;;;;;;;;;;;;;;5091150;28;831;-59
2021/03/16 04:14:20;;;;;;;;;;;;;;;;;;5089350;28;858;-60
2021/03/16 04:16:46;;;;;;;;;;;;;;;;;;5088045;28;845;-59
2021/03/16 04:19:12;;;;;;;;;;;;;;;;;;5087853;28;838;-59
2021/03/16 04:21:37;;;;;;;;;;;;;;;;;;5087780;28;870;-59
2021/03/16 04:24:03;;;;;;;;;;;;;;;;;;5086544;28;1897;-61
2021/03/16 04:26:29;;;;;;;;;;;;;;;;;;5084064;28;1068;-60
2021/03/16 04:28:55;;;;;;;;;;;;;;;;;;5087741;28;906;-58
2021/03/16 04:31:20;;;;;;;;;;;;;;;;;;5088660;28;905;-60
2021/03/16 04:33:45;;;;;;;;;;;;;;;;;;5087499;28;657;-58
2021/03/16 04:36:11;;;;;;;;;;;;;;;;;;5087741;28;847;-60
2021/03/16 04:38:36;;;;;;;;;;;;;;;;;;5088014;28;823;-59
2021/03/16 04:41:02;;;;;;;;;;;;;;;;;;5087511;28;1578;-59
2021/03/16 04:43:27;;;;;;;;;;;;;;;;;;5087198;28;1898;-59
2021/03/16 04:45:53;;;;;;;;;;;;;;;;;;5088253;28;850;-59
2021/03/16 04:48:18;;;;;;;;;;;;;;;;;;5088440;28;1072;-59
2021/03/16 04:50:44;;;;;;;;;;;;;;;;;;5087094;28;834;-58
2021/03/16 04:53:10;;;;;;;;;;;;;;;;;;5074494;28;1444;-58
2021/03/16 04:55:35;;;;;;;;;;;;;;;;;;5050155;28;1060;-59
2021/03/16 04:58:01;;;;;;;;;;;;;;;;;;5046957;28;968;-58
2021/03/16 05:00:26;;;;;;;;;;;;;;;;;;5052812;28;919;-58
2021/03/16 05:02:52;;;;;;;;;;;;;;;;;;5068111;28;1901;-58
2021/03/16 05:05:17;;;;;;;;;;;;;;;;;;5071188;28;882;-58
2021/03/16 05:07:42;;;;;;;;;;;;;;;;;;5070644;28;922;-58
2021/03/16 05:10:08;;;;;;;;;;;;;;;;;;5073360;28;1153;-58
2021/03/16 05:12:33;;;;;;;;;;;;;;;;;;5062520;28;1068;-58
2021/03/16 05:14:59;;;;;;;;;;;;;;;;;;5050789;28;854;-58
2021/03/16 05:17:24;;;;;;;;;;;;;;;;;;5050579;28;827;-58
2021/03/16 05:19:49;;;;;;;;;;;;;;;;;;5051412;28;950;-59
2021/03/16 05:22:15;;;;;;;;;;;;;;;;;;5050575;28;1894;-59
2021/03/16 05:24:41;;;;;;;;;;;;;;;;;;5050217;28;981;-59
2021/03/16 05:27:06;;;;;;;;;;;;;;;;;;5050146;28;885;-59
2021/03/16 05:29:31;;;;;;;;;;;;;;;;;;5050896;28;918;-59
2021/03/16 05:31:57;;;;;;;;;;;;;;;;;;5050547;28;883;-58
2021/03/16 05:34:22;;;;;;;;;;;;;;;;;;5051356;28;823;-58
2021/03/16 05:36:48;;;;;;;;;;;;;;;;;;5050585;28;1067;-60
2021/03/16 05:39:13;;;;;;;;;;;;;;;;;;5050765;28;874;-60
2021/03/16 05:41:40;;;;;;;;;;;;;;;;;;5050305;28;897;-60
2021/03/16 05:44:06;;;;;;;;;;;;;;;;;;5066480;28;1897;-59
2021/03/16 05:46:32;;;;;;;;;;;;;;;;;;5070574;28;929;-60
2021/03/16 05:49:01;;;;;;;;;;;;;;;;;;5070176;28;827;-59
2021/03/16 05:51:27;;;;;;;;;;;;;;;;;;5069939;28;906;-58
2021/03/16 05:53:53;;;;;;;;;;;;;;;;;;5081601;28;1086;-58
2021/03/16 05:56:18;;;;;;;;;;;;;;;;;;5090685;28;869;-59
2021/03/16 05:58:43;;;;;;;;;;;;;;;;;;5090243;28;914;-59
2021/03/16 06:01:10;;;;;;;;;;;;;;;;;;5090426;28;822;-59
2021/03/16 06:03:35;;;;;;;;;;;;;;;;;;5072152;28;1898;-59
2021/03/16 06:06:01;;;;;;;;;;;;;;;;;;5069178;28;1101;-59
2021/03/16 06:08:26;;;;;;;;;;;;;;;;;;5069158;28;853;-58
2021/03/16 06:10:52;;;;;;;;;;;;;;;;;;5070457;28;881;-58
2021/03/16 06:13:17;;;;;;;;;;;;;;;;;;5069111;28;890;-59
2021/03/16 06:15:42;;;;;;;;;;;;;;;;;;5067831;28;941;-61
2021/03/16 06:18:11;;;;;;;;;;;;;;;;;;5058498;28;1091;-60
2021/03/16 06:20:37;;;;;;;;;;;;;;;;;;5049618;28;902;-59
2021/03/16 06:23:10;;;;;;;;;;;;;;;;;;5059169;28;1906;-59
2021/03/16 06:25:42;;;;;;;;;;;;;;;;;;5070989;28;1214;-58
2021/03/16 06:28:08;;;;;;;;;;;;;;;;;;5068716;28;918;-59
2021/03/16 06:30:34;;;;;;;;;;;;;;;;;;5068765;28;811;-59
2021/03/16 06:32:59;;;;;;;;;;;;;;;;;;5068477;28;1163;-59
2021/03/16 06:35:25;;;;;;;;;;;;;;;;;;5068426;28;885;-60
2021/03/16 06:38:01;;;;;;;;;;;;;;;;;;5069306;28;894;-60
2021/03/16 06:40:34;;;;;;;;;;;;;;;;;;5067971;28;811;-60
2021/03/16 06:43:09;;;;;;;;;;;;;;;;;;5068516;28;1890;-58
2021/03/16 06:45:36;;;;;;;;;;;;;;;;;;5069096;28;870;-59
2021/03/16 06:48:18;;;;;;;;;;;;;;;;;;5068814;28;843;-59
2021/03/16 06:50:44;;;;;;;;;;;;;;;;;;5068908;28;851;-60
2021/03/16 06:53:12;;;;;;;;;;;;;;;;;;5071974;28;1081;-58
2021/03/16 06:55:38;;;;;;;;;;;;;;;;;;5085939;28;1205;-60
2021/03/16 06:58:05;;;;;;;;;;;;;;;;;;5086957;28;1157;-61
2021/03/16 07:00:31;;;;;;;;;;;;;;;;;;5087368;28;1237;-60
2021/03/16 07:02:56;;;;;;;;;;;;;;;;;;5071343;28;1963;-60
2021/03/16 07:05:28;;;;;;;;;;;;;;;;;;5049999;28;1106;-60
2021/03/16 07:07:54;;;;;;;;;;;;;;;;;;5048353;28;899;-58
2021/03/16 07:10:21;;;;;;;;;;;;;;;;;;5048781;28;827;-59
2021/03/16 07:12:47;;;;;;;;;;;;;;;;;;5062201;28;1045;-60
2021/03/16 07:15:13;;;;;;;;;;;;;;;;;;5068267;28;859;-60
2021/03/16 07:17:38;;;;;;;;;;;;;;;;;;5053727;28;1758;-60
2021/03/16 07:20:05;;;;;;;;;;;;;;;;;;5068669;28;2011;-59
2021/03/16 07:22:35;;;;;;;;;;;;;;;;;;5064356;28;1910;-61
2021/03/16 07:25:04;;;;;;;;;;;;;;;;;;5072570;28;1063;-60
2021/03/16 07:27:30;;;;;;;;;;;;;;;;;;5081103;28;1071;-60
2021/03/16 07:29:57;;;;;;;;;;;;;;;;;;5087235;28;950;-60
2021/03/16 07:32:23;;;;;;;;;;;;;;;;;;5081307;28;910;-59
2021/03/16 07:34:49;;;;;;;;;;;;;;;;;;5056253;28;1146;-60
2021/03/16 07:37:14;;;;;;;;;;;;;;;;;;5086944;28;831;-60
2021/03/16 07:39:41;;;;;;;;;;;;;;;;;;5085925;28;1091;-59
2021/03/16 07:42:07;;;;;;;;;;;;;;;;;;5087926;28;862;-60
2021/03/16 07:44:40;;;;;;;;;;;;;;;;;;5087611;28;1979;-60
2021/03/16 07:47:06;;;;;;;;;;;;;;;;;;5087521;28;877;-61
2021/03/16 07:49:35;;;;;;;;;;;;;;;;;;5087599;28;949;-60
2021/03/16 07:52:01;;;;;;;;;;;;;;;;;;5087767;28;1070;-57
2021/03/16 07:54:37;;;;;;;;;;;;;;;;;;5071503;28;1078;-58
2021/03/16 07:57:03;;;;;;;;;;;;;;;;;;5069651;28;1399;-59
2021/03/16 07:59:32;;;;;;;;;;;;;;;;;;5087867;28;961;-58
2021/03/16 08:01:57;;;;;;;;;;;;;;;;;;5085863;28;886;-59
2021/03/16 08:04:42;;;;;;;;;;;;;;;;;;5086569;28;1992;-62
2021/03/16 08:07:11;;;;;;;;;;;;;;;;;;5087359;28;815;-61
2021/03/16 08:09:47;;;;;;;;;;;;;;;;;;5080835;28;1110;-61
2021/03/16 08:12:20;;;;;;;;;;;;;;;;;;5067662;28;851;-60
2021/03/16 08:14:45;;;;;;;;;;;;;;;;;;5067407;28;819;-59
2021/03/16 08:17:10;;;;;;;;;;;;;;;;;;5073224;28;1237;-59
2021/03/16 08:19:40;;;;;;;;;;;;;;;;;;5066881;28;1163;-58
2021/03/16 08:22:05;;;;;;;;;;;;;;;;;;5062534;28;1771;-58
2021/03/16 08:24:39;;;;;;;;;;;;;;;;;;5047089;28;1906;-59
2021/03/16 08:27:12;;;;;;;;;;;;;;;;;;5059341;28;1076;-59
2021/03/16 08:29:41;;;;;;;;;;;;;;;;;;5066768;28;850;-58
2021/03/16 08:32:12;;;;;;;;;;;;;;;;;;5066197;28;907;-58
2021/03/16 08:34:37;;;;;;;;;;;;;;;;;;5066775;28;1008;-59
2021/03/16 08:37:03;;;;;;;;;;;;;;;;;;5066341;28;974;-59
2021/03/16 08:39:28;;;;;;;;;;;;;;;;;;5074343;28;1092;-59
2021/03/16 08:42:01;;;;;;;;;;;;;;;;;;5075526;28;1226;-59
2021/03/16 08:44:28;;;;;;;;;;;;;;;;;;5066592;28;1887;-60
2021/03/16 08:46:54;;;;;;;;;;;;;;;;;;5067527;28;804;-59
2021/03/16 08:49:20;;;;;;;;;;;;;;;;;;5067889;28;855;-60
2021/03/16 08:51:46;;;;;;;;;;;;;;;;;;5063363;28;1473;-59
2021/03/16 08:54:21;;;;;;;;;;;;;;;;;;5065618;28;1074;-59
2021/03/16 08:56:48;;;;;;;;;;;;;;;;;;5046727;28;1045;-58
2021/03/16 08:59:13;;;;;;;;;;;;;;;;;;5046778;28;938;-58
2021/03/16 09:01:38;;;;;;;;;;;;;;;;;;5046007;28;1089;-59
2021/03/16 09:04:07;;;;;;;;;;;;;;;;;;5045982;28;1967;-61
2021/03/16 09:06:33;;;;;;;;;;;;;;;;;;5052730;28;893;-58
2021/03/16 09:08:58;;;;;;;;;;;;;;;;;;5066269;28;823;-59
2021/03/16 09:11:31;;;;;;;;;;;;;;;;;;5066913;28;910;-61
2021/03/16 09:14:08;;;;;;;;;;;;;;;;;;5060916;28;1124;-58
2021/03/16 09:16:33;;;;;;;;;;;;;;;;;;5045815;28;1074;-59
2021/03/16 09:18:59;;;;;;;;;;;;;;;;;;5083502;28;1148;-57
2021/03/16 09:21:24;;;;;;;;;;;;;;;;;;5086412;28;807;-58
2021/03/16 09:23:50;;;;;;;;;;;;;;;;;;5087770;28;1874;-58
2021/03/16 09:26:26;;;;;;;;;;;;;;;;;;5086342;28;937;-58
2021/03/16 09:28:51;;;;;;;;;;;;;;;;;;5065513;28;1177;-61
2021/03/16 09:31:18;;;;;;;;;;;;;;;;;;5069144;28;1175;-59
2021/03/16 09:33:44;;;;;;;;;;;;;;;;;;5065864;28;1140;-58
2021/03/16 09:36:09;;;;;;;;;;;;;;;;;;5065651;28;830;-58
2021/03/16 09:38:35;;;;;;;;;;;;;;;;;;5054964;28;1088;-58
2021/03/16 09:41:06;;;;;;;;;;;;;;;;;;5062052;28;965;-60
2021/03/16 09:43:36;;;;;;;;;;;;;;;;;;5065981;28;1965;-60
2021/03/16 09:46:07;;;;;;;;;;;;;;;;;;5065794;28;890;-60
2021/03/16 09:48:33;;;;;;;;;;;;;;;;;;5066659;28;1253;-58
2021/03/16 09:50:59;;;;;;;;;;;;;;;;;;5075983;28;1147;-57
2021/03/16 09:53:25;;;;;;;;;;;;;;;;;;5077367;28;1167;-59
2021/03/16 09:55:57;;;;;;;;;;;;;;;;;;5076179;28;1261;-58
2021/03/16 09:58:23;;;;;;;;;;;;;;;;;;5077662;28;1155;-59
2021/03/16 10:00:49;;;;;;;;;;;;;;;;;;5069142;28;1183;-60
2021/03/16 10:03:15;;;;;;;;;;;;;;;;;;5067681;28;1909;-58
2021/03/16 10:05:41;;;;;;;;;;;;;;;;;;5051001;28;1323;-60
2021/03/16 10:08:06;;;;;;;;;;;;;;;;;;5067711;28;1361;-58
2021/03/16 10:10:33;;;;;;;;;;;;;;;;;;5068622;28;1151;-58
2021/03/16 10:12:58;;;;;;;;;;;;;;;;;;5067514;28;1170;-58
2021/03/16 10:15:26;;;;;;;;;;;;;;;;;;5067705;28;831;-60
2021/03/16 10:17:52;;;;;;;;;;;;;;;;;;5068219;28;846;-59
2021/03/16 10:20:21;;;;;;;;;;;;;;;;;;5068687;28;893;-60
2021/03/16 10:22:57;;;;;;;;;;;;;;;;;;5063663;28;1886;-60
2021/03/16 10:25:24;;;;;;;;;;;;;;;;;;5061998;28;1136;-59
2021/03/16 10:28:01;;;;;;;;;;;;;;;;;;5048925;28;859;-59
2021/03/16 10:30:28;;;;;;;;;;;;;;;;;;5047372;28;1395;-59
2021/03/16 10:32:54;;;;;;;;;;;;;;;;;;5067652;28;1120;-60
2021/03/16 10:35:19;;;;;;;;;;;;;;;;;;5053802;28;1001;-59
2021/03/16 10:37:45;;;;;;;;;;;;;;;;;;5027128;28;850;-59
2021/03/16 10:40:10;;;;;;;;;;;;;;;;;;5058322;28;1188;-59
2021/03/16 10:42:36;;;;;;;;;;;;;;;;;;5069187;28;1882;-59
2021/03/16 10:45:01;;;;;;;;;;;;;;;;;;5068384;28;1210;-59
2021/03/16 10:47:26;;;;;;;;;;;;;;;;;;5067533;28;1377;-59
2021/03/16 10:49:52;;;;;;;;;;;;;;;;;;5061109;28;1222;-60
2021/03/16 10:52:17;;;;;;;;;;;;;;;;;;5067682;28;874;-60
2021/03/16 10:54:42;;;;;;;;;;;;;;;;;;5068503;28;1094;-60
2021/03/16 10:57:08;;;;;;;;;;;;;;;;;;5066906;28;819;-60
2021/03/16 10:59:33;;;;;;;;;;;;;;;;;;5076639;28;850;-59
2021/03/16 11:01:59;;;;;;;;;;;;;;;;;;5077995;28;2018;-59
2021/03/16 11:04:24;;;;;;;;;;;;;;;;;;5074690;28;1930;-60
2021/03/16 11:06:49;;;;;;;;;;;;;;;;;;5077921;28;1233;-60
2021/03/16 11:09:15;;;;;;;;;;;;;;;;;;5072880;28;1477;-59
2021/03/16 11:11:41;;;;;;;;;;;;;;;;;;5076049;28;1189;-60
2021/03/16 11:14:07;;;;;;;;;;;;;;;;;;5074950;28;1072;-59
2021/03/16 11:16:33;;;;;;;;;;;;;;;;;;5074733;28;1138;-59
2021/03/16 11:18:58;;;;;;;;;;;;;;;;;;5070910;28;1166;-60
2021/03/16 11:21:24;;;;;;;;;;;;;;;;;;5076420;28;1233;-59
2021/03/16 11:23:50;;;;;;;;;;;;;;;;;;5076842;28;1937;-59
2021/03/16 11:26:15;;;;;;;;;;;;;;;;;;5072482;28;1072;-58
2021/03/16 11:28:40;;;;;;;;;;;;;;;;;;5065374;28;1828;-59
2021/03/16 11:31:06;;;;;;;;;;;;;;;;;;5058698;28;916;-58
2021/03/16 11:33:31;;;;;;;;;;;;;;;;;;5067052;28;846;-58
2021/03/16 11:35:57;;;;;;;;;;;;;;;;;;5067349;28;901;-58
2021/03/16 11:38:22;;;;;;;;;;;;;;;;;;5068079;28;843;-57
2021/03/16 11:40:48;;;;;;;;;;;;;;;;;;5067738;28;1092;-58
2021/03/16 11:43:13;;;;;;;;;;;;;;;;;;5072307;28;1885;-58
2021/03/16 11:45:40;;;;;;;;;;;;;;;;;;5066133;28;1021;-58
2021/03/16 11:48:06;;;;;;;;;;;;;;;;;;5066935;28;926;-57
2021/03/16 11:50:32;;;;;;;;;;;;;;;;;;5054378;28;1036;-58
2021/03/16 11:52:57;;;;;;;;;;;;;;;;;;5052331;28;1103;-58
2021/03/16 11:55:22;;;;;;;;;;;;;;;;;;5088894;28;842;-57
2021/03/16 11:57:48;;;;;;;;;;;;;;;;;;5086696;28;1158;-57
2021/03/16 12:00:13;;;;;;;;;;;;;;;;;;5069613;28;1155;-59
2021/03/16 12:02:39;;;;;;;;;;;;;;;;;;5067254;28;1979;-58
2021/03/16 12:05:04;;;;;;;;;;;;;;;;;;5066985;28;909;-58
2021/03/16 12:07:31;;;;;;;;;;;;;;;;;;5067103;28;890;-58
2021/03/16 12:09:56;;;;;;;;;;;;;;;;;;5067279;28;792;-59
2021/03/16 12:12:22;;;;;;;;;;;;;;;;;;5049039;28;1648;-59
2021/03/16 12:14:47;;;;;;;;;;;;;;;;;;5046594;28;796;-57
2021/03/16 12:17:14;;;;;;;;;;;;;;;;;;5047020;28;970;-58
2021/03/16 12:19:39;;;;;;;;;;;;;;;;;;5047812;28;843;-58
2021/03/16 12:22:05;;;;;;;;;;;;;;;;;;5045676;28;922;-59
2021/03/16 12:24:31;;;;;;;;;;;;;;;;;;5046658;28;1890;-60
2021/03/16 12:26:56;;;;;;;;;;;;;;;;;;5047048;28;863;-59
2021/03/16 12:29:22;;;;;;;;;;;;;;;;;;5050819;28;1249;-59
2021/03/16 12:31:47;;;;;;;;;;;;;;;;;;5066779;28;1238;-61
2021/03/16 12:34:13;;;;;;;;;;;;;;;;;;5049338;28;1524;-61
2021/03/16 12:36:38;;;;;;;;;;;;;;;;;;5050325;28;1159;-58
2021/03/16 12:39:04;;;;;;;;;;;;;;;;;;5058641;28;1218;-59
2021/03/16 12:41:29;;;;;;;;;;;;;;;;;;5067092;28;827;-61
2021/03/16 12:43:54;;;;;;;;;;;;;;;;;;5067059;28;1963;-59
2021/03/16 12:46:20;;;;;;;;;;;;;;;;;;5068337;28;886;-59
2021/03/16 12:48:46;;;;;;;;;;;;;;;;;;5049192;28;1175;-59
2021/03/16 12:51:11;;;;;;;;;;;;;;;;;;5066540;28;842;-58
2021/03/16 12:53:37;;;;;;;;;;;;;;;;;;5066406;28;1086;-57
2021/03/16 12:56:02;;;;;;;;;;;;;;;;;;5067135;28;973;-60
2021/03/16 12:58:27;;;;;;;;;;;;;;;;;;5054172;28;1406;-58
2021/03/16 13:00:53;;;;;;;;;;;;;;;;;;5066571;28;879;-59
2021/03/16 13:03:18;;;;;;;;;;;;;;;;;;5067100;28;1969;-58
2021/03/16 13:05:44;;;;;;;;;;;;;;;;;;5066438;28;1032;-59
2021/03/16 13:08:09;;;;;;;;;;;;;;;;;;5066282;28;839;-57
2021/03/16 13:10:34;;;;;;;;;;;;;;;;;;5066940;28;855;-57
2021/03/16 13:13:00;;;;;;;;;;;;;;;;;;5067314;28;660;-58
2021/03/16 13:15:25;;;;;;;;;;;;;;;;;;5072365;28;1155;-58
2021/03/16 13:17:50;;;;;;;;;;;;;;;;;;5087101;28;819;-59
2021/03/16 13:20:16;;;;;;;;;;;;;;;;;;5086701;28;854;-59
2021/03/16 13:22:41;;;;;;;;;;;;;;;;;;5079338;28;1893;-58
2021/03/16 13:25:07;;;;;;;;;;;;;;;;;;5069194;28;878;-58
2021/03/16 13:27:32;;;;;;;;;;;;;;;;;;5058000;28;894;-58
2021/03/16 13:29:57;;;;;;;;;;;;;;;;;;5050264;28;937;-58
2021/03/16 13:32:23;;;;;;;;;;;;;;;;;;5069740;28;1336;-57
2021/03/16 13:34:48;;;;;;;;;;;;;;;;;;5063003;28;1309;-57
2021/03/16 13:37:14;;;;;;;;;;;;;;;;;;5065748;28;920;-58
2021/03/16 13:39:39;;;;;;;;;;;;;;;;;;5069798;28;964;-58
2021/03/16 13:42:07;;;;;;;;;;;;;;;;;;5070025;28;878;-58
2021/03/16 13:44:33;;;;;;;;;;;;;;;;;;5070320;28;1968;-59
2021/03/16 13:46:58;;;;;;;;;;;;;;;;;;5068331;28;1040;-59
2021/03/16 13:49:24;;;;;;;;;;;;;;;;;;5073531;28;1148;-61
2021/03/16 13:51:49;;;;;;;;;;;;;;;;;;5070085;28;910;-58
2021/03/16 13:54:15;;;;;;;;;;;;;;;;;;5079427;28;1214;-60
2021/03/16 13:56:40;;;;;;;;;;;;;;;;;;5088815;28;841;-64
2021/03/16 13:59:05;;;;;;;;;;;;;;;;;;5080906;28;1146;-59
2021/03/16 14:01:31;;;;;;;;;;;;;;;;;;5069274;28;897;-60
2021/03/16 14:03:56;;;;;;;;;;;;;;;;;;5068887;28;1901;-60
2021/03/16 14:06:21;;;;;;;;;;;;;;;;;;5070675;28;807;-60
2021/03/16 14:08:47;;;;;;;;;;;;;;;;;;5069773;28;894;-60
2021/03/16 14:11:12;;;;;;;;;;;;;;;;;;5069765;28;823;-60
2021/03/16 14:13:38;;;;;;;;;;;;;;;;;;5069108;28;968;-60
2021/03/16 14:16:03;;;;;;;;;;;;;;;;;;5068273;28;874;-61
2021/03/16 14:18:28;;;;;;;;;;;;;;;;;;5068632;28;871;-60
2021/03/16 14:20:54;;;;;;;;;;;;;;;;;;5058543;28;1431;-60
2021/03/16 14:23:19;;;;;;;;;;;;;;;;;;5049853;28;1886;-60
2021/03/16 14:25:45;;;;;;;;;;;;;;;;;;5048394;28;806;-61
2021/03/16 14:28:10;;;;;;;;;;;;;;;;;;5047498;28;819;-61
2021/03/16 14:30:36;;;;;;;;;;;;;;;;;;5048615;28;887;-61
2021/03/16 14:33:01;;;;;;;;;;;;;;;;;;5049599;28;906;-60
2021/03/16 14:35:26;;;;;;;;;;;;;;;;;;5047827;28;894;-60
2021/03/16 14:37:52;;;;;;;;;;;;;;;;;;5049688;28;906;-60
2021/03/16 14:40:17;;;;;;;;;;;;;;;;;;5049117;28;858;-60
2021/03/16 14:42:43;;;;;;;;;;;;;;;;;;5049231;28;1886;-60
2021/03/16 14:45:09;;;;;;;;;;;;;;;;;;5049115;28;874;-58
2021/03/16 14:47:34;;;;;;;;;;;;;;;;;;5032673;28;1431;-58
2021/03/16 14:50:00;;;;;;;;;;;;;;;;;;5029357;28;839;-60
2021/03/16 14:52:25;;;;;;;;;;;;;;;;;;5033374;28;1604;-60
2021/03/16 14:54:50;;;;;;;;;;;;;;;;;;5051811;28;1107;-60
2021/03/16 14:57:16;;;;;;;;;;;;;;;;;;5034378;28;808;-59
2021/03/16 14:59:41;;;;;;;;;;;;;;;;;;5041683;28;943;-58
2021/03/16 15:02:07;;;;;;;;;;;;;;;;;;5068602;28;941;-59
2021/03/16 15:04:32;;;;;;;;;;;;;;;;;;5068500;28;1980;-58
2021/03/16 15:06:58;;;;;;;;;;;;;;;;;;5069106;28;894;-58
2021/03/16 15:09:25;;;;;;;;;;;;;;;;;;5069251;28;831;-60
2021/03/16 15:11:50;;;;;;;;;;;;;;;;;;5069337;28;866;-57
2021/03/16 15:14:15;;;;;;;;;;;;;;;;;;5070870;28;1436;-58
2021/03/16 15:16:41;;;;;;;;;;;;;;;;;;5079838;28;854;-57
2021/03/16 15:19:06;;;;;;;;;;;;;;;;;;5062331;28;985;-58
2021/03/16 15:21:32;;;;;;;;;;;;;;;;;;5048290;28;729;-59
2021/03/16 15:23:58;;;;;;;;;;;;;;;;;;5048674;28;1890;-61
2021/03/16 15:26:23;;;;;;;;;;;;;;;;;;5064367;28;1110;-61
2021/03/16 15:28:49;;;;;;;;;;;;;;;;;;5071924;28;1228;-61
2021/03/16 15:31:14;;;;;;;;;;;;;;;;;;5070893;28;1179;-60
2021/03/16 15:33:39;;;;;;;;;;;;;;;;;;5067154;28;934;-60
2021/03/16 15:36:07;;;;;;;;;;;;;;;;;;5074607;28;1129;-61
2021/03/16 15:38:32;;;;;;;;;;;;;;;;;;5080537;28;1351;-58
2021/03/16 15:40:57;;;;;;;;;;;;;;;;;;5067872;28;902;-60
2021/03/16 15:43:23;;;;;;;;;;;;;;;;;;5068750;28;1980;-60
2021/03/16 15:45:48;;;;;;;;;;;;;;;;;;5067219;28;898;-60
2021/03/16 15:48:13;;;;;;;;;;;;;;;;;;5067442;28;831;-59
2021/03/16 15:50:39;;;;;;;;;;;;;;;;;;5079020;28;1123;-63
2021/03/16 15:53:05;;;;;;;;;;;;;;;;;;5072574;28;1174;-62
2021/03/16 15:55:30;;;;;;;;;;;;;;;;;;5079706;28;1204;-61
2021/03/16 15:57:56;;;;;;;;;;;;;;;;;;5079185;28;1162;-62
2021/03/16 16:00:21;;;;;;;;;;;;;;;;;;5067120;28;1119;-62
2021/03/16 16:02:47;;;;;;;;;;;;;;;;;;5067270;28;1977;-62
2021/03/16 16:05:12;;;;;;;;;;;;;;;;;;5057680;28;1190;-60
2021/03/16 16:07:38;;;;;;;;;;;;;;;;;;5056097;28;1196;-60
2021/03/16 16:10:03;;;;;;;;;;;;;;;;;;5066815;28;1147;-60
2021/03/16 16:12:29;;;;;;;;;;;;;;;;;;5064915;28;1555;-61
2021/03/16 16:14:55;;;;;;;;;;;;;;;;;;5039650;28;1061;-62
2021/03/16 16:17:20;;;;;;;;;;;;;;;;;;5060246;28;1195;-61
2021/03/16 16:19:45;;;;;;;;;;;;;;;;;;5065664;28;1146;-62
2021/03/16 16:22:11;;;;;;;;;;;;;;;;;;5067203;28;1051;-62
2021/03/16 16:24:36;;;;;;;;;;;;;;;;;;5066087;28;1945;-62
2021/03/16 16:27:02;;;;;;;;;;;;;;;;;;5066265;28;1155;-62
2021/03/16 16:29:27;;;;;;;;;;;;;;;;;;5066843;28;1142;-62
2021/03/16 16:31:53;;;;;;;;;;;;;;;;;;5067452;28;1102;-62
2021/03/16 16:34:18;;;;;;;;;;;;;;;;;;5066111;28;1100;-59
2021/03/16 16:36:46;;;;;;;;;;;;;;;;;;5051907;28;1595;-59
2021/03/16 16:39:12;;;;;;;;;;;;;;;;;;5034539;28;1371;-58
2021/03/16 16:41:37;;;;;;;;;;;;;;;;;;5046206;28;852;-58
2021/03/16 16:44:03;;;;;;;;;;;;;;;;;;5026857;28;2047;-61
2021/03/16 16:46:28;;;;;;;;;;;;;;;;;;5033945;28;1085;-60
2021/03/16 16:48:54;;;;;;;;;;;;;;;;;;5046684;28;1025;-61
2021/03/16 16:51:19;;;;;;;;;;;;;;;;;;5061431;28;1164;-61
2021/03/16 16:53:46;;;;;;;;;;;;;;;;;;5064466;28;1131;-61
2021/03/16 16:56:12;;;;;;;;;;;;;;;;;;5049811;28;1210;-59
2021/03/16 16:58:38;;;;;;;;;;;;;;;;;;5067673;28;855;-59
2021/03/16 17:01:03;;;;;;;;;;;;;;;;;;5091204;28;846;-59
2021/03/16 17:03:28;;;;;;;;;;;;;;;;;;5090849;28;1933;-61
2021/03/16 17:05:54;;;;;;;;;;;;;;;;;;5091433;28;853;-59
2021/03/16 17:08:19;;;;;;;;;;;;;;;;;;5091341;28;965;-62